Time;durP1;ratioP1;P1;durP2;ratioP2;P2;SDS_P1;SDS_P2;PMS_P1;PMS_P2;Temp;Humidity;BMP_temperature;BMP_pressure;BME280_temperature;BME280_humidity;BME280_pressure;Samples;Min_cycle;Max_cycle;Signal;HPM_P1;HPM_P2
2021/08/24 00:01:06;;;;;;;10.18;7.65;;;;;;;17.25;78.98;97194.09;5045066;28;20053;-59
2021/08/24 00:03:33;;;;;;;11.20;7.72;;;;;;;17.21;79.45;97166.13;5044387;28;20056;-59
2021/08/24 00:06:00;;;;;;;9.73;8.38;;;;;;;16.73;79.93;97100.06;5044363;28;20138;-60
2021/08/24 00:08:26;;;;;;;11.45;7.93;;;;;;;17.16;79.86;97168.56;5039005;28;20052;-60
2021/08/24 00:10:57;;;;;;;9.63;7.60;;;;;;;17.07;80.25;97162.63;5024282;28;20054;-72
2021/08/24 00:13:26;;;;;;;8.60;7.68;;;;;;;17.10;80.04;97159.00;5023289;28;20429;-72
2021/08/24 00:15:54;;;;;;;11.55;7.55;;;;;;;16.99;79.99;97135.88;5024076;28;20144;-71
2021/08/24 00:18:21;;;;;;;9.27;7.88;;;;;;;16.59;80.37;97090.56;5024643;28;20049;-74
2021/08/24 00:20:51;;;;;;;10.82;7.65;;;;;;;16.94;81.48;97153.09;5024634;28;20072;-59
2021/08/24 00:23:21;;;;;;;9.65;7.85;;;;;;;16.98;81.56;97157.47;5022776;28;20049;-59
2021/08/24 00:25:50;;;;;;;12.30;7.50;;;;;;;17.04;81.61;97160.66;5023906;28;20077;-60
2021/08/24 00:28:17;;;;;;;12.60;8.38;;;;;;;17.01;81.83;97145.47;5024413;28;20585;-63
2021/08/24 00:30:44;;;;;;;12.57;8.18;;;;;;;16.92;81.97;97149.91;5055556;28;20061;-71
2021/08/24 00:33:12;;;;;;;12.82;8.40;;;;;;;16.93;82.01;97143.91;5024262;28;20057;-59
2021/08/24 00:35:41;;;;;;;11.35;7.93;;;;;;;16.99;80.84;97147.09;5024011;28;20056;-58
2021/08/24 00:38:10;;;;;;;10.98;8.68;;;;;;;16.94;81.22;97144.72;5024547;28;20061;-59
2021/08/24 00:40:38;;;;;;;11.68;8.27;;;;;;;16.76;79.89;97116.03;5023944;28;20145;-72
2021/08/24 00:43:12;;;;;;;10.70;8.48;;;;;;;16.25;79.80;97033.59;5022857;28;20064;-70
2021/08/24 00:45:43;;;;;;;12.73;8.80;;;;;;;16.90;80.66;97138.34;5023794;28;20056;-68
2021/08/24 00:48:10;;;;;;;10.63;8.45;;;;;;;16.91;80.88;97140.75;5024034;28;20060;-71
2021/08/24 00:50:42;;;;;;;11.85;8.68;;;;;;;16.78;81.32;97141.59;5023800;28;20051;-59
2021/08/24 00:53:12;;;;;;;10.05;8.48;;;;;;;16.74;81.65;97129.66;5023884;28;20049;-71
2021/08/24 00:55:41;;;;;;;11.18;8.20;;;;;;;16.14;83.01;97052.41;5024382;28;20053;-58
2021/08/24 00:58:11;;;;;;;11.85;8.77;;;;;;;16.66;83.50;97133.69;5023554;28;20443;-61
2021/08/24 01:00:42;;;;;;;10.90;8.57;;;;;;;15.84;83.57;96999.06;5023692;28;20049;-71
2021/08/24 01:03:16;;;;;;;13.60;8.80;;;;;;;16.68;84.02;97125.69;5023899;28;20163;-59
2021/08/24 01:05:46;;;;;;;11.27;8.18;;;;;;;16.63;84.53;97126.13;5024486;28;20146;-59
2021/08/24 01:08:18;;;;;;;11.18;8.70;;;;;;;16.63;84.70;97123.31;5027021;28;20075;-58
2021/08/24 01:10:52;;;;;;;10.80;9.70;;;;;;;16.44;83.87;97072.28;5043354;28;20053;-71
2021/08/24 01:13:39;;;;;;;9.02;8.07;;;;;;;16.68;84.13;97120.09;5043471;28;20511;-61
2021/08/24 01:16:30;;;;;;;11.73;8.88;;;;;;;16.71;83.81;97124.88;5043431;28;20080;-69
2021/08/24 01:19:16;;;;;;;11.10;8.57;;;;;;;16.63;84.63;97122.09;5043380;28;20052;-59
2021/08/24 01:21:58;;;;;;;10.90;8.07;;;;;;;16.69;84.17;97116.09;5043261;28;20067;-58
2021/08/24 01:24:45;;;;;;;11.15;8.23;;;;;;;16.75;83.40;97122.84;5043272;28;20057;-59
2021/08/24 01:27:28;;;;;;;11.52;8.63;;;;;;;16.64;83.28;97120.88;5043393;28;20503;-72
2021/08/24 01:30:14;;;;;;;12.70;8.93;;;;;;;16.57;83.81;97122.94;5043582;28;20063;-71
2021/08/24 01:32:53;;;;;;;11.65;9.50;;;;;;;16.39;85.52;97113.81;5042498;28;20052;-72
2021/08/24 01:35:24;;;;;;;12.82;8.52;;;;;;;16.32;85.40;97114.66;5043093;28;20107;-72
2021/08/24 01:38:18;;;;;;;9.63;8.57;;;;;;;16.25;85.99;97114.66;5041811;28;20535;-60
2021/08/24 01:40:59;;;;;;;14.38;9.05;;;;;;;16.20;86.29;97115.06;5043391;28;20057;-72
2021/08/24 01:43:36;;;;;;;10.32;8.95;;;;;;;16.19;85.00;97102.31;5043521;28;20533;-72
2021/08/24 01:46:42;;;;;;;11.23;8.95;;;;;;;16.10;84.69;97096.38;5043457;28;20064;-70
2021/08/24 01:49:11;;;;;;;12.90;9.50;;;;;;;15.99;85.08;97101.19;5043097;28;20059;-58
2021/08/24 01:51:54;;;;;;;12.13;9.55;;;;;;;15.93;85.67;97091.63;5042937;28;20056;-61
2021/08/24 01:54:31;;;;;;;14.52;9.60;;;;;;;15.77;87.36;97105.25;5041598;28;20064;-71
2021/08/24 01:57:02;;;;;;;12.25;9.68;;;;;;;15.76;87.28;97086.88;5042407;28;20049;-72
2021/08/24 01:59:59;;;;;;;11.93;8.98;;;;;;;15.88;86.80;97088.47;5042990;28;20049;-74
2021/08/24 02:02:33;;;;;;;12.93;10.15;;;;;;;15.91;86.91;97088.44;5042691;28;20074;-59
2021/08/24 02:05:13;;;;;;;11.02;9.70;;;;;;;15.70;85.26;97021.47;5057925;28;20072;-66
2021/08/24 02:07:40;;;;;;;12.05;9.07;;;;;;;15.89;85.68;97040.56;5043057;28;20071;-68
2021/08/24 02:10:18;;;;;;;13.38;9.98;;;;;;;16.09;85.28;97080.78;5028028;28;20083;-68
2021/08/24 02:12:48;;;;;;;16.55;12.88;;;;;;;15.75;86.16;97068.53;5025708;28;20057;-68
2021/08/24 02:15:17;;;;;;;14.30;10.95;;;;;;;15.13;90.26;97047.88;5027020;28;20053;-67
2021/08/24 02:17:47;;;;;;;14.30;10.88;;;;;;;15.10;89.93;97017.97;5026742;28;20520;-68
2021/08/24 02:20:21;;;;;;;14.57;11.18;;;;;;;15.47;88.72;97035.09;5058160;28;20057;-60
2021/08/24 02:22:53;;;;;;;19.73;14.60;;;;;;;15.11;90.25;97033.53;5026507;28;20068;-67
2021/08/24 02:25:33;;;;;;;14.18;10.60;;;;;;;14.87;93.27;97062.25;5045599;28;20515;-61
2021/08/24 02:28:15;;;;;;;18.00;11.02;;;;;;;15.06;92.55;97061.84;5066024;28;20434;-59
2021/08/24 02:30:49;;;;;;;13.10;10.82;;;;;;;15.25;91.79;97049.47;5064659;28;20048;-61
2021/08/24 02:33:17;;;;;;;14.30;10.48;;;;;;;15.21;90.47;97041.09;5066015;28;20062;-72
2021/08/24 02:35:57;;;;;;;14.27;10.43;;;;;;;15.41;90.16;97047.88;5066080;28;20534;-71
2021/08/24 02:38:34;;;;;;;12.30;9.80;;;;;;;14.97;90.31;96966.59;5066531;28;20066;-72
2021/08/24 02:41:13;;;;;;;13.43;10.45;;;;;;;15.58;88.74;97058.22;5064712;28;20055;-73
2021/08/24 02:44:00;;;;;;;17.98;9.77;;;;;;;15.21;88.13;96993.66;5065787;28;20052;-61
2021/08/24 02:46:31;;;;;;;13.10;9.73;;;;;;;15.69;88.15;97047.81;5066381;28;20056;-73
2021/08/24 02:49:03;;;;;;;15.00;10.45;;;;;;;15.71;87.36;97047.41;5066042;28;20057;-72
2021/08/24 02:51:31;;;;;;;13.55;9.25;;;;;;;15.63;87.57;97049.44;5064268;28;20053;-59
2021/08/24 02:54:10;;;;;;;15.07;10.27;;;;;;;15.69;87.40;97053.41;5066231;28;20083;-69
2021/08/24 02:56:37;;;;;;;13.63;9.88;;;;;;;15.69;87.22;97053.41;5064294;28;20060;-60
2021/08/24 02:59:04;;;;;;;17.27;9.15;;;;;;;15.65;87.04;97033.06;5064457;28;20067;-72
2021/08/24 03:01:31;;;;;;;14.82;10.48;;;;;;;15.73;86.49;97043.00;5065852;28;20426;-73
2021/08/24 03:03:58;;;;;;;12.38;9.70;;;;;;;15.66;87.28;97054.22;5065133;28;20500;-60
2021/08/24 03:06:27;;;;;;;13.73;10.25;;;;;;;15.73;87.35;97051.38;5065931;28;20056;-72
2021/08/24 03:08:54;;;;;;;11.55;10.02;;;;;;;15.60;89.04;97055.81;5073477;28;20071;-61
2021/08/24 03:11:25;;;;;;;12.70;9.50;;;;;;;15.64;88.90;97050.22;5086237;28;20050;-72
2021/08/24 03:14:01;;;;;;;12.48;8.95;;;;;;;15.53;89.04;97050.25;5086263;28;20048;-60
2021/08/24 03:16:50;;;;;;;12.43;9.20;;;;;;;15.39;89.34;97044.69;5084239;28;20070;-70
2021/08/24 03:19:22;;;;;;;12.32;9.43;;;;;;;15.46;89.53;97055.06;5085454;28;20425;-60
2021/08/24 03:21:49;;;;;;;14.02;9.48;;;;;;;15.54;89.21;97054.63;5083971;28;20134;-59
2021/08/24 03:24:18;;;;;;;12.52;9.25;;;;;;;15.53;88.77;97057.81;5083986;28;20048;-59
2021/08/24 03:26:47;;;;;;;12.75;9.20;;;;;;;15.43;89.28;97062.22;5085413;28;20052;-59
2021/08/24 03:29:19;;;;;;;11.40;9.50;;;;;;;15.45;88.99;97054.25;5083765;28;20055;-61
2021/08/24 03:31:51;;;;;;;13.35;9.45;;;;;;;15.43;89.03;97051.06;5084956;28;20048;-72
2021/08/24 03:34:18;;;;;;;14.07;8.57;;;;;;;15.42;89.64;97054.25;5085319;28;20052;-71
2021/08/24 03:36:46;;;;;;;11.88;9.48;;;;;;;14.68;89.84;96951.09;5085309;28;20051;-70
2021/08/24 03:39:12;;;;;;;13.70;9.68;;;;;;;15.23;91.02;97049.06;5083652;28;20510;-59
2021/08/24 03:41:39;;;;;;;12.27;10.13;;;;;;;14.93;90.21;96996.50;5085074;28;20048;-72
2021/08/24 03:44:06;;;;;;;13.65;10.07;;;;;;;15.28;88.12;97055.06;5085220;28;20051;-72
2021/08/24 03:46:34;;;;;;;21.70;10.77;;;;;;;15.19;88.29;97049.88;5084975;28;20062;-71
2021/08/24 03:49:01;;;;;;;14.25;10.27;;;;;;;15.28;88.09;97048.66;5085154;28;20059;-72
2021/08/24 03:51:28;;;;;;;13.70;10.07;;;;;;;15.08;89.25;97034.31;5085631;28;20047;-60
2021/08/24 03:53:54;;;;;;;17.45;10.55;;;;;;;14.87;88.88;97006.47;5084845;28;20519;-70
2021/08/24 03:56:21;;;;;;;14.15;9.45;;;;;;;15.26;89.08;97051.84;5084722;28;20059;-60
2021/08/24 03:58:48;;;;;;;16.00;9.77;;;;;;;14.80;88.71;96967.41;5084701;28;20834;-59
2021/08/24 04:01:18;;;;;;;14.45;10.48;;;;;;;15.35;88.64;97049.44;5083058;28;20048;-70
2021/08/24 04:03:45;;;;;;;12.02;10.43;;;;;;;15.37;88.12;97052.63;5083651;28;20429;-71
2021/08/24 04:06:12;;;;;;;14.38;9.40;;;;;;;15.49;87.91;97049.44;5084984;28;20059;-71
2021/08/24 04:08:39;;;;;;;16.08;9.80;;;;;;;15.41;88.37;97039.50;5078696;28;20052;-68
2021/08/24 04:11:08;;;;;;;14.45;9.48;;;;;;;15.65;88.57;97052.59;5064031;28;20054;-59
2021/08/24 04:13:34;;;;;;;14.05;9.38;;;;;;;15.29;87.07;96977.69;5064480;28;20219;-58
2021/08/24 04:16:07;;;;;;;12.40;9.20;;;;;;;15.72;87.36;97058.19;5064386;28;20439;-59
2021/08/24 04:18:34;;;;;;;13.55;9.27;;;;;;;15.81;86.73;97055.75;5064428;28;20052;-59
2021/08/24 04:21:01;;;;;;;15.32;9.48;;;;;;;15.86;86.35;97058.13;5062752;28;20048;-59
2021/08/24 04:23:28;;;;;;;15.82;9.82;;;;;;;15.91;84.31;97049.34;5062743;28;20071;-59
2021/08/24 04:25:55;;;;;;;13.23;9.77;;;;;;;15.93;84.35;97052.50;5063955;28;20048;-59
2021/08/24 04:28:21;;;;;;;16.60;10.73;;;;;;;15.95;85.01;97049.34;5064308;28;20507;-69
2021/08/24 04:30:48;;;;;;;13.07;10.38;;;;;;;15.46;86.05;96988.84;5063769;28;20048;-69
2021/08/24 04:33:21;;;;;;;14.32;9.63;;;;;;;15.84;86.58;97013.03;5063897;28;20552;-58
2021/08/24 04:35:50;;;;;;;17.88;10.77;;;;;;;16.31;84.57;97056.34;5063566;28;20052;-69
2021/08/24 04:38:17;;;;;;;19.95;9.45;;;;;;;16.39;84.00;97049.53;5063986;28;20052;-59
2021/08/24 04:40:45;;;;;;;17.73;10.32;;;;;;;16.17;84.45;97023.66;5063618;28;20056;-69
2021/08/24 04:43:12;;;;;;;15.63;9.80;;;;;;;16.55;83.44;97045.03;5064065;28;20052;-68
2021/08/24 04:45:39;;;;;;;25.80;9.95;;;;;;;16.66;83.08;97044.19;5062057;28;20045;-69
2021/08/24 04:48:06;;;;;;;19.65;9.90;;;;;;;16.52;82.72;97029.09;5062931;28;20125;-58
2021/08/24 04:50:33;;;;;;;15.65;9.10;;;;;;;16.73;82.53;97111.25;5063649;28;20093;-71
2021/08/24 04:53:00;;;;;;;13.93;8.85;;;;;;;16.95;81.15;97051.94;5063723;28;20048;-60
2021/08/24 04:55:27;;;;;;;12.40;8.40;;;;;;;17.11;80.69;97048.63;5063737;28;20060;-70
2021/08/24 04:57:53;;;;;;;10.30;8.35;;;;;;;17.29;80.66;97046.47;5063662;28;20052;-58
2021/08/24 05:00:21;;;;;;;14.60;8.50;;;;;;;17.53;79.46;97037.06;5063468;28;20048;-59
2021/08/24 05:02:48;;;;;;;16.17;9.65;;;;;;;17.68;78.32;97038.50;5063514;28;20411;-72
2021/08/24 05:05:15;;;;;;;13.63;9.20;;;;;;;17.90;76.90;97045.47;5063443;28;20561;-57
2021/08/24 05:07:41;;;;;;;17.48;9.13;;;;;;;18.00;76.08;97047.34;5063783;28;20438;-75
2021/08/24 05:10:08;;;;;;;14.27;8.68;;;;;;;18.13;75.16;97043.56;5079940;28;20048;-58
2021/08/24 05:12:35;;;;;;;14.15;9.20;;;;;;;18.31;75.32;97039.72;5084052;28;20092;-75
2021/08/24 05:15:02;;;;;;;10.95;8.90;;;;;;;18.48;74.44;97042.31;5083404;28;20058;-73
2021/08/24 05:17:29;;;;;;;13.82;9.32;;;;;;;18.60;74.18;97044.59;5082322;28;20062;-71
2021/08/24 05:19:55;;;;;;;16.13;8.55;;;;;;;18.75;73.11;97034.72;5084099;28;20056;-59
2021/08/24 05:22:22;;;;;;;16.95;9.50;;;;;;;18.89;72.27;97040.13;5083348;28;20063;-60
2021/08/24 05:24:49;;;;;;;17.25;10.20;;;;;;;18.73;71.53;96992.25;5083459;28;20051;-58
2021/08/24 05:27:15;;;;;;;15.45;9.60;;;;;;;19.13;71.84;97033.31;5083459;28;20052;-58
2021/08/24 05:29:42;;;;;;;14.57;9.93;;;;;;;19.32;71.57;97040.25;5083561;28;20603;-73
2021/08/24 05:32:09;;;;;;;20.23;9.18;;;;;;;19.49;70.54;97027.88;5083360;28;20519;-58
2021/08/24 05:34:36;;;;;;;12.85;8.38;;;;;;;19.65;68.97;97015.97;5083427;28;20044;-58
2021/08/24 05:37:03;;;;;;;18.15;9.48;;;;;;;19.67;69.07;97010.69;5082105;28;20051;-73
2021/08/24 05:39:29;;;;;;;14.38;8.70;;;;;;;19.95;69.28;97032.66;5082092;28;20090;-58
2021/08/24 05:41:56;;;;;;;12.50;9.18;;;;;;;20.09;67.60;97026.75;5083161;28;20052;-73
2021/08/24 05:44:23;;;;;;;17.35;8.85;;;;;;;20.09;67.65;97009.88;5087544;28;20609;-77
2021/08/24 05:46:49;;;;;;;16.42;9.30;;;;;;;19.99;67.04;96994.00;5074112;28;20053;-58
2021/08/24 05:49:16;;;;;;;15.32;9.40;;;;;;;20.46;65.67;97024.34;5078660;28;20063;-65
2021/08/24 05:51:43;;;;;;;13.90;8.48;;;;;;;20.63;64.88;97028.00;5069608;28;20056;-59
2021/08/24 05:54:10;;;;;;;16.10;9.40;;;;;;;20.72;64.88;97022.56;5085466;28;20063;-60
2021/08/24 05:56:37;;;;;;;14.65;9.15;;;;;;;20.83;63.71;97015.44;5086286;28;20126;-58
2021/08/24 05:59:03;;;;;;;12.07;8.18;;;;;;;21.12;63.16;97017.63;5086735;28;20055;-69
2021/08/24 06:01:32;;;;;;;14.10;8.43;;;;;;;21.31;62.64;97034.41;5088033;28;20055;-60
2021/08/24 06:04:00;;;;;;;10.07;7.85;;;;;;;21.49;61.46;97019.88;5081968;28;20490;-65
2021/08/24 06:06:34;;;;;;;11.95;7.63;;;;;;;21.15;61.55;96958.34;5066043;28;20147;-66
2021/08/24 06:09:05;;;;;;;15.30;8.20;;;;;;;21.62;59.43;97010.28;5070610;28;20094;-58
2021/08/24 06:11:35;;;;;;;16.60;8.45;;;;;;;21.15;59.76;96918.91;5084027;28;20507;-68
2021/08/24 06:14:04;;;;;;;16.83;8.38;;;;;;;21.81;60.15;97017.84;5084056;28;20062;-61
2021/08/24 06:16:32;;;;;;;12.02;8.43;;;;;;;21.98;60.44;97013.72;5082962;28;20058;-59
2021/08/24 06:19:00;;;;;;;10.80;7.90;;;;;;;22.19;59.43;97010.28;5086046;28;20063;-68
2021/08/24 06:21:26;;;;;;;14.35;8.65;;;;;;;21.73;60.44;97012.78;5086673;28;20056;-60
2021/08/24 06:23:54;;;;;;;10.15;8.07;;;;;;;21.58;59.39;96975.72;5087153;28;20147;-73
2021/08/24 06:26:21;;;;;;;11.93;8.23;;;;;;;22.17;58.00;97012.75;5084831;28;20044;-58
2021/08/24 06:28:48;;;;;;;12.80;8.32;;;;;;;22.31;57.76;96994.63;5084950;28;20161;-58
2021/08/24 06:31:24;;;;;;;13.32;8.25;;;;;;;22.54;57.59;97004.84;5084502;28;20058;-57
2021/08/24 06:33:52;;;;;;;14.27;8.93;;;;;;;22.65;57.37;96999.66;5085073;28;20059;-60
2021/08/24 06:36:20;;;;;;;10.52;7.85;;;;;;;22.83;55.68;96994.22;5085838;28;20063;-61
2021/08/24 06:38:48;;;;;;;12.80;7.68;;;;;;;22.79;54.52;96959.66;5086217;28;20063;-68
2021/08/24 06:41:16;;;;;;;9.80;6.97;;;;;;;23.23;53.84;97020.78;5075514;28;20059;-59
2021/08/24 06:43:43;;;;;;;9.73;7.57;;;;;;;22.86;52.89;96934.03;5066317;28;20076;-66
2021/08/24 06:46:10;;;;;;;7.60;6.60;;;;;;;22.84;52.88;96913.91;5065812;28;20056;-67
2021/08/24 06:48:37;;;;;;;12.85;7.38;;;;;;;23.35;51.78;97020.78;5064301;28;20469;-68
2021/08/24 06:51:04;;;;;;;11.65;7.43;;;;;;;23.42;51.55;96997.94;5063363;28;20044;-69
2021/08/24 06:53:31;;;;;;;20.52;10.90;;;;;;;23.59;51.29;96964.63;5065470;28;20545;-71
2021/08/24 06:55:58;;;;;;;7.60;6.47;;;;;;;23.63;50.16;96988.69;5064729;28;20052;-62
2021/08/24 06:58:24;;;;;;;6.63;5.95;;;;;;;23.58;49.38;96991.34;5065573;28;20071;-62
2021/08/24 07:00:51;;;;;;;10.52;7.15;;;;;;;23.86;49.21;96991.13;5065254;28;20063;-61
2021/08/24 07:03:18;;;;;;;7.25;6.22;;;;;;;24.14;48.91;96994.97;5064317;28;20514;-61
2021/08/24 07:05:49;;;;;;;8.20;7.40;;;;;;;24.00;48.97;96938.88;5063426;28;20055;-67
2021/08/24 07:08:17;;;;;;;8.90;6.32;;;;;;;23.66;49.00;96879.53;5063617;28;20056;-59
2021/08/24 07:10:45;;;;;;;10.35;7.60;;;;;;;24.65;48.37;96995.44;5082994;28;20056;-66
2021/08/24 07:13:11;;;;;;;8.85;6.75;;;;;;;24.05;48.61;96992.06;5083844;28;20062;-58
2021/08/24 07:15:38;;;;;;;9.73;7.68;;;;;;;23.77;48.38;96931.63;5084429;28;20052;-58
2021/08/24 07:18:06;;;;;;;10.25;6.68;;;;;;;24.04;48.44;96973.53;5083941;28;20138;-67
2021/08/24 07:20:33;;;;;;;8.75;7.13;;;;;;;24.30;48.29;96996.81;5084978;28;20792;-60
2021/08/24 07:23:01;;;;;;;14.18;9.45;;;;;;;24.32;48.38;96927.16;5085632;28;21008;-66
2021/08/24 07:25:28;;;;;;;10.00;6.22;;;;;;;24.89;48.01;96985.19;5084973;28;20245;-65
2021/08/24 07:27:55;;;;;;;12.05;8.48;;;;;;;24.76;47.53;96931.47;5085305;28;20058;-59
2021/08/24 07:30:23;;;;;;;9.13;6.55;;;;;;;24.98;46.16;96939.88;5084519;28;20044;-61
2021/08/24 07:32:50;;;;;;;7.50;6.68;;;;;;;25.26;45.06;96978.38;5085069;28;20161;-64
2021/08/24 07:35:18;;;;;;;7.82;6.45;;;;;;;24.54;45.79;96927.09;5084866;28;20059;-64
2021/08/24 07:37:45;;;;;;;10.27;6.80;;;;;;;25.14;44.97;96987.81;5086371;28;20086;-66
2021/08/24 07:40:12;;;;;;;7.05;6.35;;;;;;;25.39;44.54;96975.47;5082029;28;20048;-69
2021/08/24 07:42:39;;;;;;;7.38;6.20;;;;;;;25.23;43.99;96925.44;5065290;28;20600;-67
2021/08/24 07:45:08;;;;;;;7.50;6.00;;;;;;;25.87;42.54;96977.41;5065761;28;20049;-67
2021/08/24 07:47:35;;;;;;;6.70;6.00;;;;;;;26.05;42.29;96968.94;5063371;28;20462;-60
2021/08/24 07:50:04;;;;;;;7.32;6.00;;;;;;;26.02;41.84;96927.28;5065140;28;20163;-61
2021/08/24 07:52:31;;;;;;;11.32;6.38;;;;;;;26.21;40.41;96923.13;5063356;28;20071;-68
2021/08/24 07:54:58;;;;;;;9.18;5.97;;;;;;;26.39;40.39;96974.22;5063126;28;20059;-60
2021/08/24 07:57:25;;;;;;;7.68;6.00;;;;;;;26.34;39.45;96964.31;5062636;28;20161;-60
2021/08/24 07:59:52;;;;;;;7.45;6.28;;;;;;;26.26;39.23;96926.13;5064461;28;20063;-61
2021/08/24 08:02:19;;;;;;;7.13;5.85;;;;;;;26.24;39.53;96922.19;5064343;28;20059;-66
2021/08/24 08:04:46;;;;;;;10.32;6.35;;;;;;;26.39;39.76;96923.88;5064368;28;20110;-59
2021/08/24 08:07:14;;;;;;;9.27;6.55;;;;;;;26.89;39.47;96956.41;5063005;28;20056;-67
2021/08/24 08:09:41;;;;;;;8.32;5.90;;;;;;;26.41;40.24;96960.34;5073177;28;20487;-61
2021/08/24 08:12:09;;;;;;;7.40;6.50;;;;;;;26.81;40.42;96958.03;5083828;28;20060;-58
2021/08/24 08:14:36;;;;;;;15.02;6.60;;;;;;;27.10;39.81;96949.69;5082904;28;20060;-66
2021/08/24 08:17:03;;;;;;;7.40;6.13;;;;;;;27.37;38.02;96946.72;5083624;28;20060;-59
2021/08/24 08:19:30;;;;;;;5.97;5.38;;;;;;;27.57;36.05;96926.97;5084421;28;20070;-59
2021/08/24 08:21:57;;;;;;;6.53;5.88;;;;;;;27.81;35.67;96950.50;5085374;28;20059;-67
2021/08/24 08:24:24;;;;;;;6.07;5.57;;;;;;;27.79;34.13;96953.03;5084278;28;20113;-67
2021/08/24 08:26:51;;;;;;;8.23;5.30;;;;;;;27.50;34.42;96859.03;5083960;28;20066;-68
2021/08/24 08:29:18;;;;;;;12.85;6.53;;;;;;;27.49;37.17;96942.81;5084170;28;20074;-58
2021/08/24 08:31:48;;;;;;;6.22;5.72;;;;;;;27.85;36.35;96942.53;5083706;28;20052;-59
2021/08/24 08:34:18;;;;;;;6.25;5.55;;;;;;;28.14;35.68;96928.41;5083821;28;20062;-59
2021/08/24 08:36:48;;;;;;;10.35;5.28;;;;;;;28.28;34.37;96931.75;5083484;28;20075;-67
2021/08/24 08:39:16;;;;;;;6.15;5.18;;;;;;;28.65;33.40;96930.09;5072494;28;20063;-69
2021/08/24 08:42:12;;;;;;;8.25;7.38;;;;;;;28.79;33.04;96929.28;5066638;28;20507;-60
2021/08/24 08:45:01;;;;;;;6.78;5.30;;;;;;;28.59;33.17;96892.16;5064922;28;20058;-71
2021/08/24 08:47:33;;;;;;;7.28;5.68;;;;;;;28.96;30.95;96924.66;5063224;28;20542;-70
2021/08/24 08:50:32;;;;;;;5.78;5.28;;;;;;;28.55;31.05;96857.38;5075268;28;20426;-58
2021/08/24 08:53:25;;;;;;;11.27;7.18;;;;;;;28.28;31.84;96917.50;5067521;28;20869;-66
2021/08/24 08:56:02;;;;;;;7.82;6.35;;;;;;;28.57;32.23;96917.50;5063157;28;20889;-61
2021/08/24 08:58:43;;;;;;;7.97;5.00;;;;;;;28.81;30.51;96918.97;5065628;28;20309;-57
2021/08/24 09:01:17;;;;;;;5.95;5.40;;;;;;;28.12;31.25;96836.94;5072223;28;20048;-60
2021/08/24 09:03:54;;;;;;;6.63;5.20;;;;;;;28.28;31.69;96861.28;5074315;28;20088;-64
2021/08/24 09:06:25;;;;;;;5.68;5.20;;;;;;;28.71;30.58;96879.63;5068103;28;20048;-58
2021/08/24 09:08:53;;;;;;;6.65;5.63;;;;;;;28.94;30.87;96904.38;5062123;28;20053;-59
2021/08/24 09:11:27;;;;;;;6.93;5.72;;;;;;;28.90;30.47;96889.53;5070514;28;20055;-67
2021/08/24 09:14:03;;;;;;;8.73;6.07;;;;;;;28.97;30.96;96894.84;5070336;28;20356;-57
2021/08/24 09:16:35;;;;;;;6.07;5.47;;;;;;;29.29;30.32;96905.97;5062736;28;20071;-64
2021/08/24 09:19:14;;;;;;;5.28;4.70;;;;;;;29.39;29.47;96866.66;5063769;28;20076;-72
2021/08/24 09:21:44;;;;;;;6.35;5.53;;;;;;;29.49;30.57;96885.22;5078024;28;20047;-74
2021/08/24 09:24:21;;;;;;;6.65;6.00;;;;;;;28.65;29.68;96814.00;5065286;28;20049;-57
2021/08/24 09:27:09;;;;;;;9.73;7.90;;;;;;;29.60;28.92;96893.94;5074410;28;20048;-73
2021/08/24 09:29:49;;;;;;;7.53;5.68;;;;;;;29.79;29.39;96875.22;5064176;28;20059;-60
2021/08/24 09:32:21;;;;;;;5.75;5.20;;;;;;;30.13;28.74;96885.72;5074071;28;20052;-71
2021/08/24 09:34:50;;;;;;;5.47;5.07;;;;;;;30.36;28.34;96878.97;5077791;28;20052;-59
2021/08/24 09:37:20;;;;;;;7.40;5.30;;;;;;;30.34;28.53;96887.28;5073483;28;20056;-59
2021/08/24 09:39:50;;;;;;;10.32;7.28;;;;;;;30.41;28.52;96881.09;5085130;28;20048;-68
2021/08/24 09:42:32;;;;;;;6.93;6.22;;;;;;;30.65;27.60;96870.09;5081116;28;20052;-58
2021/08/24 09:45:02;;;;;;;7.68;6.88;;;;;;;30.44;27.19;96831.47;5071353;28;20450;-59
2021/08/24 09:47:29;;;;;;;6.70;6.10;;;;;;;30.75;27.67;96853.53;5082142;28;20052;-66
2021/08/24 09:50:14;;;;;;;6.00;5.47;;;;;;;30.87;26.83;96867.44;5071464;28;20048;-63
2021/08/24 09:52:48;;;;;;;7.75;6.80;;;;;;;30.34;27.65;96869.31;5072452;28;20044;-67
2021/08/24 09:55:23;;;;;;;7.30;6.60;;;;;;;30.32;27.31;96849.81;5081385;28;20049;-73
2021/08/24 09:57:55;;;;;;;5.88;5.40;;;;;;;30.55;26.82;96862.25;5080115;28;20056;-58
2021/08/24 10:00:29;;;;;;;9.00;5.82;;;;;;;30.22;27.42;96861.94;5061242;28;20523;-63
2021/08/24 10:02:58;;;;;;;5.63;5.00;;;;;;;30.48;27.23;96857.75;5064208;28;20052;-66
2021/08/24 10:05:35;;;;;;;5.68;5.18;;;;;;;30.63;26.60;96869.84;5062780;28;20048;-61
2021/08/24 10:08:28;;;;;;;6.80;5.22;;;;;;;30.66;26.38;96853.75;5062667;28;20052;-70
2021/08/24 10:11:17;;;;;;;5.78;5.28;;;;;;;30.26;25.91;96840.41;5103673;28;20052;-70
2021/08/24 10:13:49;;;;;;;5.82;5.32;;;;;;;30.53;25.33;96825.56;5081918;28;20515;-70
2021/08/24 10:16:33;;;;;;;6.28;5.78;;;;;;;31.06;25.72;96852.75;5080654;28;20530;-70
2021/08/24 10:19:23;;;;;;;5.57;5.18;;;;;;;31.15;25.65;96847.59;5083190;28;20107;-60
2021/08/24 10:21:59;;;;;;;7.32;5.68;;;;;;;30.74;25.41;96795.56;5082943;28;20081;-71
2021/08/24 10:24:46;;;;;;;6.50;5.78;;;;;;;31.00;26.02;96851.94;5082844;28;20595;-59
2021/08/24 10:27:30;;;;;;;5.70;5.20;;;;;;;31.14;25.41;96845.25;5072283;28;20066;-70
2021/08/24 10:30:02;;;;;;;5.40;4.97;;;;;;;31.17;25.53;96833.56;5083998;28;20055;-57
2021/08/24 10:32:35;;;;;;;6.10;5.50;;;;;;;31.30;25.23;96836.75;5084769;28;20075;-69
2021/08/24 10:35:22;;;;;;;6.40;5.82;;;;;;;31.55;25.40;96823.59;5084966;28;20578;-58
2021/08/24 10:37:50;;;;;;;6.28;5.78;;;;;;;31.55;25.12;96829.34;5084787;28;20056;-57
2021/08/24 10:40:24;;;;;;;6.15;5.65;;;;;;;31.48;25.10;96824.09;5083826;28;20052;-66
2021/08/24 10:43:09;;;;;;;5.82;5.32;;;;;;;31.60;25.11;96819.97;5066416;28;20090;-62
2021/08/24 10:45:41;;;;;;;6.30;5.70;;;;;;;31.49;25.00;96774.88;5077697;28;20053;-66
2021/08/24 10:48:15;;;;;;;6.18;5.28;;;;;;;31.55;25.34;96807.19;5074860;28;20102;-70
2021/08/24 10:50:53;;;;;;;;;;;;;;;31.72;26.26;96810.13;5084916;28;20048;-67
2021/08/24 10:53:33;;;;;;;5.55;5.05;;;;;;;32.16;24.72;96807.34;5069764;28;19925;-60
2021/08/24 10:56:10;;;;;;;6.75;6.15;;;;;;;32.37;24.36;96802.97;5066138;28;20056;-60
2021/08/24 10:58:50;;;;;;;6.00;5.50;;;;;;;32.31;23.91;96757.03;5082285;28;20057;-57
2021/08/24 11:01:27;;;;;;;5.38;5.00;;;;;;;32.57;23.62;96794.09;5076261;28;20087;-59
2021/08/24 11:04:20;;;;;;;6.57;5.97;;;;;;;31.44;23.94;96794.94;5068234;28;20052;-69
2021/08/24 11:06:53;;;;;;;6.45;5.45;;;;;;;30.87;24.57;96795.91;5068152;28;20087;-70
2021/08/24 11:10:16;;;;;;;6.72;6.10;;;;;;;31.37;25.11;96783.94;5066065;28;20055;-61
2021/08/24 11:13:06;;;;;;;7.70;6.35;;;;;;;31.87;24.36;96767.69;5029987;28;20062;-62
2021/08/24 11:15:47;;;;;;;6.97;6.28;;;;;;;32.03;23.86;96784.94;5082029;28;20056;-68
2021/08/24 11:18:23;;;;;;;6.68;5.70;;;;;;;32.12;23.75;96786.78;5074670;28;20051;-73
2021/08/24 11:20:57;;;;;;;5.47;4.97;;;;;;;30.95;22.93;96564.47;5078528;28;20059;-59
2021/08/24 11:23:52;;;;;;;5.50;5.00;;;;;;;32.49;22.83;96775.84;5075718;28;20059;-72
2021/08/24 11:26:33;;;;;;;6.88;5.32;;;;;;;32.47;23.32;96778.44;5075246;28;20463;-69
2021/08/24 11:29:27;;;;;;;6.85;5.72;;;;;;;32.95;23.09;96770.31;5065611;28;20054;-66
2021/08/24 11:32:15;;;;;;;8.02;5.80;;;;;;;33.32;23.43;96773.53;5069739;28;20059;-71
2021/08/24 11:34:48;;;;;;;8.43;5.85;;;;;;;33.42;22.82;96776.94;5077708;28;20053;-70
2021/08/24 11:37:29;;;;;;;7.50;5.65;;;;;;;32.14;23.07;96670.25;5077100;28;20055;-67
2021/08/24 11:40:02;;;;;;;6.05;5.45;;;;;;;32.98;22.30;96769.25;5085048;28;20502;-63
2021/08/24 11:42:44;;;;;;;6.27;5.77;;;;;;;33.19;22.86;96759.00;5072111;28;20060;-60
2021/08/24 11:45:23;;;;;;;5.93;5.43;;;;;;;33.53;22.44;96788.38;5064962;28;20055;-59
2021/08/24 11:48:27;;;;;;;8.48;6.72;;;;;;;33.75;22.16;96763.16;5067704;28;20424;-60
2021/08/24 11:51:15;;;;;;;6.43;5.72;;;;;;;33.83;22.01;96756.88;5064059;28;20418;-62